sensor_id;sensor_type;location;lat;lon;timestamp;P1;durP1;ratioP1;P2;durP2;ratioP2
42000;SDS011;27689;48.390;10.856;2022-11-09T00:02:36;12.05;;;7.50;;
42000;SDS011;27689;48.390;10.856;2022-11-09T00:05:20;11.57;;;7.57;;
42000;SDS011;27689;48.390;10.856;2022-11-09T00:08:04;12.18;;;7.47;;
42000;SDS011;27689;48.390;10.856;2022-11-09T00:10:49;8.88;;;7.03;;
42000;SDS011;27689;48.390;10.856;2022-11-09T00:13:37;8.98;;;6.50;;
42000;SDS011;27689;48.390;10.856;2022-11-09T00:16:22;8.40;;;6.38;;
42000;SDS011;27689;48.390;10.856;2022-11-09T00:19:06;11.27;;;5.93;;
42000;SDS011;27689;48.390;10.856;2022-11-09T00:21:49;10.50;;;6.75;;
42000;SDS011;27689;48.390;10.856;2022-11-09T00:24:34;8.82;;;6.03;;
42000;SDS011;27689;48.390;10.856;2022-11-09T00:27:17;8.15;;;5.57;;
42000;SDS011;27689;48.390;10.856;2022-11-09T00:30:01;9.10;;;5.90;;
42000;SDS011;27689;48.390;10.856;2022-11-09T00:32:45;9.80;;;6.40;;
42000;SDS011;27689;48.390;10.856;2022-11-09T00:35:30;11.77;;;6.38;;
42000;SDS011;27689;48.390;10.856;2022-11-09T00:38:14;8.50;;;6.55;;
42000;SDS011;27689;48.390;10.856;2022-11-09T00:40:59;7.73;;;5.83;;
42000;SDS011;27689;48.390;10.856;2022-11-09T00:43:45;6.93;;;5.68;;
42000;SDS011;27689;48.390;10.856;2022-11-09T00:49:13;7.35;;;5.50;;
42000;SDS011;27689;48.390;10.856;2022-11-09T00:51:57;8.27;;;5.72;;
42000;SDS011;27689;48.390;10.856;2022-11-09T00:54:40;9.43;;;5.30;;
42000;SDS011;27689;48.390;10.856;2022-11-09T00:57:24;7.97;;;5.30;;
42000;SDS011;27689;48.390;10.856;2022-11-09T01:00:08;6.65;;;5.15;;
42000;SDS011;27689;48.390;10.856;2022-11-09T01:02:53;6.78;;;5.35;;
42000;SDS011;27689;48.390;10.856;2022-11-09T01:05:38;8.68;;;5.80;;
42000;SDS011;27689;48.390;10.856;2022-11-09T01:08:25;6.05;;;4.72;;
42000;SDS011;27689;48.390;10.856;2022-11-09T01:11:09;7.18;;;5.50;;
42000;SDS011;27689;48.390;10.856;2022-11-09T01:13:53;8.05;;;5.50;;
42000;SDS011;27689;48.390;10.856;2022-11-09T01:16:38;6.45;;;4.57;;
42000;SDS011;27689;48.390;10.856;2022-11-09T01:19:22;8.15;;;5.20;;
42000;SDS011;27689;48.390;10.856;2022-11-09T01:22:06;6.17;;;4.80;;
42000;SDS011;27689;48.390;10.856;2022-11-09T01:24:50;7.97;;;4.73;;
42000;SDS011;27689;48.390;10.856;2022-11-09T01:27:34;6.05;;;4.65;;
42000;SDS011;27689;48.390;10.856;2022-11-09T01:30:18;6.95;;;5.03;;
42000;SDS011;27689;48.390;10.856;2022-11-09T01:33:03;6.40;;;4.90;;
42000;SDS011;27689;48.390;10.856;2022-11-09T01:35:48;8.23;;;4.50;;
42000;SDS011;27689;48.390;10.856;2022-11-09T01:38:32;7.10;;;4.50;;
42000;SDS011;27689;48.390;10.856;2022-11-09T01:41:17;7.10;;;4.63;;
42000;SDS011;27689;48.390;10.856;2022-11-09T01:44:15;8.25;;;5.40;;
42000;SDS011;27689;48.390;10.856;2022-11-09T01:47:01;7.53;;;5.15;;
42000;SDS011;27689;48.390;10.856;2022-11-09T01:49:51;6.38;;;4.68;;
42000;SDS011;27689;48.390;10.856;2022-11-09T01:52:39;6.20;;;4.28;;
42000;SDS011;27689;48.390;10.856;2022-11-09T01:55:26;6.22;;;4.43;;
42000;SDS011;27689;48.390;10.856;2022-11-09T01:58:12;6.68;;;4.40;;
42000;SDS011;27689;48.390;10.856;2022-11-09T02:01:00;8.63;;;4.20;;
42000;SDS011;27689;48.390;10.856;2022-11-09T02:03:47;6.47;;;4.03;;
42000;SDS011;27689;48.390;10.856;2022-11-09T02:06:38;7.03;;;4.43;;
42000;SDS011;27689;48.390;10.856;2022-11-09T02:09:25;5.70;;;4.63;;
42000;SDS011;27689;48.390;10.856;2022-11-09T02:12:14;5.07;;;3.88;;
42000;SDS011;27689;48.390;10.856;2022-11-09T02:15:03;5.28;;;4.22;;
42000;SDS011;27689;48.390;10.856;2022-11-09T02:17:50;5.05;;;3.63;;
42000;SDS011;27689;48.390;10.856;2022-11-09T02:20:43;4.80;;;3.78;;
42000;SDS011;27689;48.390;10.856;2022-11-09T02:23:28;5.10;;;4.10;;
42000;SDS011;27689;48.390;10.856;2022-11-09T02:26:14;7.27;;;3.87;;
42000;SDS011;27689;48.390;10.856;2022-11-09T02:29:05;7.25;;;4.50;;
42000;SDS011;27689;48.390;10.856;2022-11-09T02:31:56;5.32;;;3.90;;
42000;SDS011;27689;48.390;10.856;2022-11-09T02:34:43;6.93;;;4.07;;
42000;SDS011;27689;48.390;10.856;2022-11-09T02:37:28;6.53;;;4.13;;
42000;SDS011;27689;48.390;10.856;2022-11-09T02:43:09;5.70;;;3.67;;
42000;SDS011;27689;48.390;10.856;2022-11-09T02:45:56;4.40;;;3.55;;
42000;SDS011;27689;48.390;10.856;2022-11-09T02:48:40;4.45;;;3.60;;
42000;SDS011;27689;48.390;10.856;2022-11-09T02:51:24;5.40;;;3.80;;
42000;SDS011;27689;48.390;10.856;2022-11-09T02:54:08;6.30;;;3.87;;
42000;SDS011;27689;48.390;10.856;2022-11-09T02:56:52;5.72;;;3.80;;
42000;SDS011;27689;48.390;10.856;2022-11-09T02:59:36;4.85;;;3.78;;
42000;SDS011;27689;48.390;10.856;2022-11-09T03:02:19;5.50;;;3.67;;
42000;SDS011;27689;48.390;10.856;2022-11-09T03:05:04;5.18;;;3.40;;
42000;SDS011;27689;48.390;10.856;2022-11-09T03:07:49;6.18;;;4.20;;
42000;SDS011;27689;48.390;10.856;2022-11-09T03:10:33;5.47;;;4.30;;
42000;SDS011;27689;48.390;10.856;2022-11-09T03:13:17;4.80;;;3.72;;
42000;SDS011;27689;48.390;10.856;2022-11-09T03:16:04;4.20;;;3.00;;
42000;SDS011;27689;48.390;10.856;2022-11-09T03:18:50;5.13;;;3.83;;
42000;SDS011;27689;48.390;10.856;2022-11-09T03:21:34;5.40;;;3.55;;
42000;SDS011;27689;48.390;10.856;2022-11-09T03:24:18;4.88;;;3.63;;
42000;SDS011;27689;48.390;10.856;2022-11-09T03:27:02;4.93;;;2.92;;
42000;SDS011;27689;48.390;10.856;2022-11-09T03:29:46;4.10;;;3.23;;
42000;SDS011;27689;48.390;10.856;2022-11-09T03:32:30;5.13;;;3.13;;
42000;SDS011;27689;48.390;10.856;2022-11-09T03:35:14;4.82;;;3.17;;
42000;SDS011;27689;48.390;10.856;2022-11-09T03:37:58;4.65;;;3.28;;
42000;SDS011;27689;48.390;10.856;2022-11-09T03:40:42;4.45;;;3.08;;
42000;SDS011;27689;48.390;10.856;2022-11-09T03:43:27;5.10;;;3.10;;
42000;SDS011;27689;48.390;10.856;2022-11-09T03:48:55;5.20;;;3.33;;
42000;SDS011;27689;48.390;10.856;2022-11-09T03:51:39;4.00;;;2.93;;
42000;SDS011;27689;48.390;10.856;2022-11-09T03:54:23;3.83;;;3.00;;
42000;SDS011;27689;48.390;10.856;2022-11-09T03:57:07;4.25;;;3.08;;
42000;SDS011;27689;48.390;10.856;2022-11-09T03:59:51;5.07;;;3.00;;
42000;SDS011;27689;48.390;10.856;2022-11-09T04:02:35;4.30;;;3.10;;
42000;SDS011;27689;48.390;10.856;2022-11-09T04:05:19;5.22;;;3.03;;
42000;SDS011;27689;48.390;10.856;2022-11-09T04:08:03;5.40;;;3.67;;
42000;SDS011;27689;48.390;10.856;2022-11-09T04:10:47;5.40;;;3.40;;
42000;SDS011;27689;48.390;10.856;2022-11-09T04:13:31;4.93;;;3.10;;
42000;SDS011;27689;48.390;10.856;2022-11-09T04:16:15;4.90;;;3.38;;
42000;SDS011;27689;48.390;10.856;2022-11-09T04:18:59;7.00;;;3.13;;
42000;SDS011;27689;48.390;10.856;2022-11-09T04:21:43;5.95;;;2.67;;
42000;SDS011;27689;48.390;10.856;2022-11-09T04:24:27;4.30;;;2.97;;
42000;SDS011;27689;48.390;10.856;2022-11-09T04:27:11;5.17;;;3.83;;
42000;SDS011;27689;48.390;10.856;2022-11-09T04:29:55;17.30;;;12.27;;
42000;SDS011;27689;48.390;10.856;2022-11-09T04:32:39;15.45;;;10.25;;
42000;SDS011;27689;48.390;10.856;2022-11-09T04:35:23;11.68;;;8.70;;
42000;SDS011;27689;48.390;10.856;2022-11-09T04:38:10;10.55;;;6.93;;
42000;SDS011;27689;48.390;10.856;2022-11-09T04:40:58;7.63;;;5.40;;
42000;SDS011;27689;48.390;10.856;2022-11-09T04:43:43;6.63;;;4.60;;
42000;SDS011;27689;48.390;10.856;2022-11-09T04:46:27;5.05;;;4.22;;
42000;SDS011;27689;48.390;10.856;2022-11-09T04:49:11;8.75;;;5.85;;
42000;SDS011;27689;48.390;10.856;2022-11-09T04:51:55;7.50;;;5.85;;
42000;SDS011;27689;48.390;10.856;2022-11-09T04:54:39;8.93;;;6.73;;
42000;SDS011;27689;48.390;10.856;2022-11-09T04:57:23;8.93;;;6.00;;
42000;SDS011;27689;48.390;10.856;2022-11-09T05:00:07;6.78;;;5.22;;
42000;SDS011;27689;48.390;10.856;2022-11-09T05:02:51;8.68;;;5.82;;
42000;SDS011;27689;48.390;10.856;2022-11-09T05:05:36;8.10;;;5.47;;
42000;SDS011;27689;48.390;10.856;2022-11-09T05:08:21;7.38;;;5.05;;
42000;SDS011;27689;48.390;10.856;2022-11-09T05:11:05;5.55;;;4.18;;
42000;SDS011;27689;48.390;10.856;2022-11-09T05:13:50;7.63;;;4.70;;
42000;SDS011;27689;48.390;10.856;2022-11-09T05:16:37;6.40;;;4.00;;
42000;SDS011;27689;48.390;10.856;2022-11-09T05:19:21;5.88;;;4.32;;
42000;SDS011;27689;48.390;10.856;2022-11-09T05:22:05;7.45;;;4.38;;
42000;SDS011;27689;48.390;10.856;2022-11-09T05:25:08;6.75;;;3.85;;
42000;SDS011;27689;48.390;10.856;2022-11-09T05:27:52;6.20;;;4.00;;
42000;SDS011;27689;48.390;10.856;2022-11-09T05:30:36;5.83;;;4.07;;
42000;SDS011;27689;48.390;10.856;2022-11-09T05:33:21;6.18;;;3.78;;
42000;SDS011;27689;48.390;10.856;2022-11-09T05:36:05;4.97;;;3.75;;
42000;SDS011;27689;48.390;10.856;2022-11-09T05:38:49;4.43;;;3.50;;
42000;SDS011;27689;48.390;10.856;2022-11-09T05:41:33;4.95;;;3.85;;
42000;SDS011;27689;48.390;10.856;2022-11-09T05:44:17;5.63;;;3.90;;
42000;SDS011;27689;48.390;10.856;2022-11-09T05:47:01;5.78;;;3.58;;
42000;SDS011;27689;48.390;10.856;2022-11-09T05:49:44;5.47;;;3.65;;
42000;SDS011;27689;48.390;10.856;2022-11-09T05:52:28;6.50;;;4.55;;
42000;SDS011;27689;48.390;10.856;2022-11-09T05:55:12;5.57;;;4.10;;
42000;SDS011;27689;48.390;10.856;2022-11-09T05:57:56;6.35;;;4.13;;
42000;SDS011;27689;48.390;10.856;2022-11-09T06:00:40;7.50;;;4.38;;
42000;SDS011;27689;48.390;10.856;2022-11-09T06:03:24;5.13;;;3.42;;
42000;SDS011;27689;48.390;10.856;2022-11-09T06:06:09;6.18;;;3.97;;
42000;SDS011;27689;48.390;10.856;2022-11-09T06:08:54;6.57;;;3.88;;
42000;SDS011;27689;48.390;10.856;2022-11-09T06:11:38;5.57;;;3.97;;
42000;SDS011;27689;48.390;10.856;2022-11-09T06:14:22;5.22;;;3.75;;
42000;SDS011;27689;48.390;10.856;2022-11-09T06:17:06;8.63;;;4.70;;
42000;SDS011;27689;48.390;10.856;2022-11-09T06:19:50;5.22;;;4.05;;
42000;SDS011;27689;48.390;10.856;2022-11-09T06:22:34;4.30;;;3.67;;
42000;SDS011;27689;48.390;10.856;2022-11-09T06:25:18;4.47;;;3.50;;
42000;SDS011;27689;48.390;10.856;2022-11-09T06:28:02;4.63;;;3.50;;
42000;SDS011;27689;48.390;10.856;2022-11-09T06:30:46;6.32;;;3.63;;
42000;SDS011;27689;48.390;10.856;2022-11-09T06:33:31;6.97;;;4.40;;
42000;SDS011;27689;48.390;10.856;2022-11-09T06:36:16;5.55;;;3.70;;
42000;SDS011;27689;48.390;10.856;2022-11-09T06:38:59;5.33;;;4.03;;
42000;SDS011;27689;48.390;10.856;2022-11-09T06:41:43;8.35;;;4.97;;
42000;SDS011;27689;48.390;10.856;2022-11-09T06:44:27;7.00;;;4.07;;
42000;SDS011;27689;48.390;10.856;2022-11-09T06:47:12;8.18;;;4.75;;
42000;SDS011;27689;48.390;10.856;2022-11-09T06:49:56;5.30;;;3.80;;
42000;SDS011;27689;48.390;10.856;2022-11-09T06:52:40;4.60;;;3.60;;
42000;SDS011;27689;48.390;10.856;2022-11-09T06:55:25;11.82;;;4.15;;
42000;SDS011;27689;48.390;10.856;2022-11-09T06:58:11;7.13;;;3.80;;
42000;SDS011;27689;48.390;10.856;2022-11-09T07:00:58;9.63;;;3.97;;
42000;SDS011;27689;48.390;10.856;2022-11-09T07:03:42;6.20;;;4.35;;
42000;SDS011;27689;48.390;10.856;2022-11-09T07:06:26;6.60;;;4.32;;
42000;SDS011;27689;48.390;10.856;2022-11-09T07:09:10;8.65;;;5.55;;
42000;SDS011;27689;48.390;10.856;2022-11-09T07:11:54;6.32;;;4.57;;
42000;SDS011;27689;48.390;10.856;2022-11-09T07:14:38;6.85;;;4.35;;
42000;SDS011;27689;48.390;10.856;2022-11-09T07:17:22;7.15;;;4.32;;
42000;SDS011;27689;48.390;10.856;2022-11-09T07:20:06;4.85;;;3.38;;
42000;SDS011;27689;48.390;10.856;2022-11-09T07:22:52;5.93;;;3.40;;
42000;SDS011;27689;48.390;10.856;2022-11-09T07:25:36;4.85;;;3.67;;
42000;SDS011;27689;48.390;10.856;2022-11-09T07:28:20;8.00;;;4.35;;
42000;SDS011;27689;48.390;10.856;2022-11-09T07:31:04;8.70;;;4.00;;
42000;SDS011;27689;48.390;10.856;2022-11-09T07:33:48;7.20;;;3.85;;
42000;SDS011;27689;48.390;10.856;2022-11-09T07:36:33;6.60;;;4.40;;
42000;SDS011;27689;48.390;10.856;2022-11-09T07:39:19;6.80;;;4.82;;
42000;SDS011;27689;48.390;10.856;2022-11-09T07:42:03;8.33;;;5.27;;
42000;SDS011;27689;48.390;10.856;2022-11-09T07:44:47;11.93;;;4.80;;
42000;SDS011;27689;48.390;10.856;2022-11-09T07:47:31;7.50;;;4.37;;
42000;SDS011;27689;48.390;10.856;2022-11-09T07:50:15;6.28;;;3.95;;
42000;SDS011;27689;48.390;10.856;2022-11-09T07:52:59;6.38;;;3.45;;
42000;SDS011;27689;48.390;10.856;2022-11-09T07:58:28;8.88;;;4.20;;
42000;SDS011;27689;48.390;10.856;2022-11-09T08:01:12;7.25;;;4.25;;
42000;SDS011;27689;48.390;10.856;2022-11-09T08:03:56;6.90;;;4.78;;
42000;SDS011;27689;48.390;10.856;2022-11-09T08:06:40;9.70;;;3.70;;
42000;SDS011;27689;48.390;10.856;2022-11-09T08:09:24;7.40;;;3.35;;
42000;SDS011;27689;48.390;10.856;2022-11-09T08:12:08;6.10;;;3.38;;
42000;SDS011;27689;48.390;10.856;2022-11-09T08:14:52;5.77;;;3.00;;
42000;SDS011;27689;48.390;10.856;2022-11-09T08:17:36;6.97;;;3.60;;
42000;SDS011;27689;48.390;10.856;2022-11-09T08:20:20;5.53;;;3.33;;
42000;SDS011;27689;48.390;10.856;2022-11-09T08:23:04;5.80;;;3.13;;
42000;SDS011;27689;48.390;10.856;2022-11-09T08:25:48;4.72;;;2.78;;
42000;SDS011;27689;48.390;10.856;2022-11-09T08:28:33;4.72;;;3.25;;
42000;SDS011;27689;48.390;10.856;2022-11-09T08:31:17;6.70;;;4.00;;
42000;SDS011;27689;48.390;10.856;2022-11-09T08:34:02;6.10;;;3.70;;
42000;SDS011;27689;48.390;10.856;2022-11-09T08:36:46;6.00;;;3.53;;
42000;SDS011;27689;48.390;10.856;2022-11-09T08:39:30;5.28;;;3.08;;
42000;SDS011;27689;48.390;10.856;2022-11-09T08:42:14;7.73;;;3.20;;
42000;SDS011;27689;48.390;10.856;2022-11-09T08:44:58;8.63;;;3.35;;
42000;SDS011;27689;48.390;10.856;2022-11-09T08:47:42;3.70;;;2.90;;
42000;SDS011;27689;48.390;10.856;2022-11-09T08:50:26;8.38;;;3.42;;
42000;SDS011;27689;48.390;10.856;2022-11-09T08:53:12;6.22;;;3.05;;
42000;SDS011;27689;48.390;10.856;2022-11-09T08:55:56;6.97;;;3.13;;
42000;SDS011;27689;48.390;10.856;2022-11-09T08:58:41;9.38;;;3.17;;
42000;SDS011;27689;48.390;10.856;2022-11-09T09:01:25;6.37;;;2.77;;
42000;SDS011;27689;48.390;10.856;2022-11-09T09:04:09;4.55;;;3.00;;
42000;SDS011;27689;48.390;10.856;2022-11-09T09:06:53;5.60;;;3.20;;
42000;SDS011;27689;48.390;10.856;2022-11-09T09:09:37;4.25;;;2.67;;
42000;SDS011;27689;48.390;10.856;2022-11-09T09:12:21;3.37;;;2.37;;
42000;SDS011;27689;48.390;10.856;2022-11-09T09:15:05;6.68;;;3.03;;
42000;SDS011;27689;48.390;10.856;2022-11-09T09:17:49;5.55;;;2.92;;
42000;SDS011;27689;48.390;10.856;2022-11-09T09:20:33;6.20;;;3.10;;
42000;SDS011;27689;48.390;10.856;2022-11-09T09:23:17;5.57;;;2.90;;
42000;SDS011;27689;48.390;10.856;2022-11-09T09:26:02;6.60;;;2.90;;
42000;SDS011;27689;48.390;10.856;2022-11-09T09:31:31;7.97;;;2.67;;
42000;SDS011;27689;48.390;10.856;2022-11-09T09:34:14;4.60;;;2.63;;
42000;SDS011;27689;48.390;10.856;2022-11-09T09:36:58;4.43;;;2.63;;
42000;SDS011;27689;48.390;10.856;2022-11-09T09:39:42;4.10;;;2.55;;
42000;SDS011;27689;48.390;10.856;2022-11-09T09:42:31;4.22;;;3.00;;
42000;SDS011;27689;48.390;10.856;2022-11-09T09:45:19;4.22;;;2.97;;
42000;SDS011;27689;48.390;10.856;2022-11-09T09:48:20;4.72;;;3.00;;
42000;SDS011;27689;48.390;10.856;2022-11-09T09:51:36;20.60;;;6.53;;
42000;SDS011;27689;48.390;10.856;2022-11-09T09:54:25;6.07;;;3.70;;
42000;SDS011;27689;48.390;10.856;2022-11-09T09:57:18;5.95;;;3.35;;
42000;SDS011;27689;48.390;10.856;2022-11-09T10:00:06;5.28;;;2.50;;
42000;SDS011;27689;48.390;10.856;2022-11-09T10:02:53;3.42;;;2.08;;
42000;SDS011;27689;48.390;10.856;2022-11-09T10:20:54;4.23;;;2.60;;
42000;SDS011;27689;48.390;10.856;2022-11-09T10:23:55;3.85;;;2.40;;
42000;SDS011;27689;48.390;10.856;2022-11-09T10:26:57;4.05;;;2.63;;
42000;SDS011;27689;48.390;10.856;2022-11-09T10:29:44;4.15;;;2.60;;
42000;SDS011;27689;48.390;10.856;2022-11-09T10:32:30;6.93;;;2.90;;
42000;SDS011;27689;48.390;10.856;2022-11-09T10:35:29;3.72;;;2.50;;
42000;SDS011;27689;48.390;10.856;2022-11-09T10:38:20;4.68;;;2.35;;
42000;SDS011;27689;48.390;10.856;2022-11-09T10:41:18;3.88;;;2.45;;
42000;SDS011;27689;48.390;10.856;2022-11-09T10:44:26;3.42;;;2.33;;
42000;SDS011;27689;48.390;10.856;2022-11-09T10:47:14;4.25;;;2.20;;
42000;SDS011;27689;48.390;10.856;2022-11-09T10:50:05;3.85;;;2.03;;
42000;SDS011;27689;48.390;10.856;2022-11-09T10:53:19;4.82;;;2.05;;
42000;SDS011;27689;48.390;10.856;2022-11-09T10:56:18;3.60;;;2.53;;
42000;SDS011;27689;48.390;10.856;2022-11-09T10:59:25;3.70;;;2.22;;
42000;SDS011;27689;48.390;10.856;2022-11-09T11:07:52;4.30;;;2.45;;
42000;SDS011;27689;48.390;10.856;2022-11-09T11:10:35;3.33;;;2.40;;
42000;SDS011;27689;48.390;10.856;2022-11-09T11:13:20;3.30;;;2.10;;
42000;SDS011;27689;48.390;10.856;2022-11-09T11:19:38;4.40;;;2.50;;
42000;SDS011;27689;48.390;10.856;2022-11-09T11:22:24;3.70;;;2.40;;
42000;SDS011;27689;48.390;10.856;2022-11-09T11:25:16;3.88;;;2.35;;
42000;SDS011;27689;48.390;10.856;2022-11-09T11:28:03;4.13;;;2.55;;
42000;SDS011;27689;48.390;10.856;2022-11-09T11:30:57;4.45;;;2.63;;
42000;SDS011;27689;48.390;10.856;2022-11-09T11:33:41;3.13;;;2.40;;
42000;SDS011;27689;48.390;10.856;2022-11-09T11:36:38;4.80;;;2.60;;
42000;SDS011;27689;48.390;10.856;2022-11-09T11:42:47;3.65;;;2.40;;
42000;SDS011;27689;48.390;10.856;2022-11-09T11:45:35;3.47;;;2.45;;
42000;SDS011;27689;48.390;10.856;2022-11-09T12:04:12;3.97;;;2.45;;
42000;SDS011;27689;48.390;10.856;2022-11-09T12:16:04;3.83;;;2.30;;
42000;SDS011;27689;48.390;10.856;2022-11-09T12:19:01;5.68;;;1.92;;
42000;SDS011;27689;48.390;10.856;2022-11-09T12:28:10;7.25;;;3.30;;
42000;SDS011;27689;48.390;10.856;2022-11-09T12:34:38;3.17;;;2.30;;
42000;SDS011;27689;48.390;10.856;2022-11-09T12:37:24;4.13;;;2.22;;
42000;SDS011;27689;48.390;10.856;2022-11-09T12:40:22;4.70;;;2.30;;
42000;SDS011;27689;48.390;10.856;2022-11-09T12:45:59;4.35;;;2.40;;
42000;SDS011;27689;48.390;10.856;2022-11-09T12:48:46;3.30;;;2.28;;
42000;SDS011;27689;48.390;10.856;2022-11-09T12:51:32;4.50;;;2.10;;
42000;SDS011;27689;48.390;10.856;2022-11-09T12:54:17;3.90;;;2.13;;
42000;SDS011;27689;48.390;10.856;2022-11-09T12:57:03;4.18;;;3.03;;
42000;SDS011;27689;48.390;10.856;2022-11-09T12:59:54;3.60;;;2.30;;
42000;SDS011;27689;48.390;10.856;2022-11-09T13:02:53;3.60;;;2.55;;
42000;SDS011;27689;48.390;10.856;2022-11-09T13:05:40;3.30;;;2.30;;
42000;SDS011;27689;48.390;10.856;2022-11-09T13:08:26;7.32;;;2.60;;
42000;SDS011;27689;48.390;10.856;2022-11-09T13:26:19;4.65;;;2.55;;
42000;SDS011;27689;48.390;10.856;2022-11-09T13:43:18;4.53;;;2.00;;
42000;SDS011;27689;48.390;10.856;2022-11-09T13:58:27;3.10;;;2.80;;
42000;SDS011;27689;48.390;10.856;2022-11-09T14:01:25;7.15;;;2.60;;
42000;SDS011;27689;48.390;10.856;2022-11-09T14:22:23;4.60;;;3.28;;
42000;SDS011;27689;48.390;10.856;2022-11-09T14:25:17;6.75;;;2.78;;
42000;SDS011;27689;48.390;10.856;2022-11-09T14:28:10;5.07;;;2.78;;
42000;SDS011;27689;48.390;10.856;2022-11-09T14:31:20;3.75;;;2.92;;
42000;SDS011;27689;48.390;10.856;2022-11-09T14:34:04;5.03;;;3.10;;
42000;SDS011;27689;48.390;10.856;2022-11-09T14:36:48;3.83;;;2.53;;
42000;SDS011;27689;48.390;10.856;2022-11-09T14:39:32;3.50;;;2.70;;
42000;SDS011;27689;48.390;10.856;2022-11-09T14:42:17;6.28;;;3.22;;
42000;SDS011;27689;48.390;10.856;2022-11-09T14:45:03;3.95;;;2.90;;
42000;SDS011;27689;48.390;10.856;2022-11-09T14:47:49;4.57;;;2.90;;
42000;SDS011;27689;48.390;10.856;2022-11-09T14:50:37;2.90;;;2.40;;
42000;SDS011;27689;48.390;10.856;2022-11-09T14:53:24;4.10;;;2.85;;
42000;SDS011;27689;48.390;10.856;2022-11-09T14:56:16;4.85;;;3.15;;
42000;SDS011;27689;48.390;10.856;2022-11-09T14:59:03;8.38;;;4.35;;
42000;SDS011;27689;48.390;10.856;2022-11-09T15:05:01;8.00;;;4.97;;
42000;SDS011;27689;48.390;10.856;2022-11-09T15:07:47;7.35;;;5.40;;
42000;SDS011;27689;48.390;10.856;2022-11-09T15:10:31;9.40;;;5.13;;
42000;SDS011;27689;48.390;10.856;2022-11-09T15:13:17;6.55;;;4.82;;
42000;SDS011;27689;48.390;10.856;2022-11-09T15:16:19;6.72;;;4.80;;
42000;SDS011;27689;48.390;10.856;2022-11-09T15:19:05;6.32;;;4.40;;
42000;SDS011;27689;48.390;10.856;2022-11-09T15:33:51;7.18;;;4.47;;
42000;SDS011;27689;48.390;10.856;2022-11-09T15:36:38;6.28;;;4.72;;
42000;SDS011;27689;48.390;10.856;2022-11-09T15:39:22;6.55;;;3.90;;
42000;SDS011;27689;48.390;10.856;2022-11-09T15:42:09;5.90;;;4.07;;
42000;SDS011;27689;48.390;10.856;2022-11-09T15:44:56;5.28;;;3.45;;
42000;SDS011;27689;48.390;10.856;2022-11-09T15:47:48;5.53;;;3.50;;
42000;SDS011;27689;48.390;10.856;2022-11-09T15:50:37;6.10;;;3.50;;
42000;SDS011;27689;48.390;10.856;2022-11-09T15:53:21;5.68;;;3.45;;
42000;SDS011;27689;48.390;10.856;2022-11-09T15:56:06;5.40;;;3.58;;
42000;SDS011;27689;48.390;10.856;2022-11-09T15:58:54;5.72;;;4.00;;
42000;SDS011;27689;48.390;10.856;2022-11-09T16:01:38;8.30;;;5.25;;
42000;SDS011;27689;48.390;10.856;2022-11-09T16:04:22;16.10;;;11.02;;
42000;SDS011;27689;48.390;10.856;2022-11-09T16:07:08;10.98;;;9.80;;
42000;SDS011;27689;48.390;10.856;2022-11-09T16:09:55;13.98;;;11.98;;
42000;SDS011;27689;48.390;10.856;2022-11-09T16:12:39;11.57;;;10.45;;
42000;SDS011;27689;48.390;10.856;2022-11-09T16:15:23;7.53;;;6.22;;
42000;SDS011;27689;48.390;10.856;2022-11-09T16:18:10;4.85;;;4.32;;
42000;SDS011;27689;48.390;10.856;2022-11-09T16:20:55;9.90;;;3.95;;
42000;SDS011;27689;48.390;10.856;2022-11-09T16:23:39;6.53;;;4.10;;
42000;SDS011;27689;48.390;10.856;2022-11-09T16:26:23;5.07;;;3.90;;
42000;SDS011;27689;48.390;10.856;2022-11-09T16:29:08;5.40;;;3.90;;
42000;SDS011;27689;48.390;10.856;2022-11-09T16:31:52;4.60;;;3.67;;
42000;SDS011;27689;48.390;10.856;2022-11-09T16:34:36;5.53;;;4.17;;
42000;SDS011;27689;48.390;10.856;2022-11-09T16:37:20;5.85;;;4.03;;
42000;SDS011;27689;48.390;10.856;2022-11-09T16:40:05;5.80;;;4.47;;
42000;SDS011;27689;48.390;10.856;2022-11-09T16:42:52;5.55;;;4.25;;
42000;SDS011;27689;48.390;10.856;2022-11-09T16:45:36;6.07;;;4.60;;
42000;SDS011;27689;48.390;10.856;2022-11-09T16:48:20;6.40;;;4.70;;
42000;SDS011;27689;48.390;10.856;2022-11-09T16:51:04;7.70;;;5.00;;
42000;SDS011;27689;48.390;10.856;2022-11-09T16:53:48;7.47;;;5.00;;
42000;SDS011;27689;48.390;10.856;2022-11-09T16:56:32;5.25;;;4.45;;
42000;SDS011;27689;48.390;10.856;2022-11-09T16:59:18;5.72;;;4.32;;
42000;SDS011;27689;48.390;10.856;2022-11-09T17:02:02;5.55;;;4.05;;
42000;SDS011;27689;48.390;10.856;2022-11-09T17:04:46;5.57;;;4.17;;
42000;SDS011;27689;48.390;10.856;2022-11-09T17:07:30;7.88;;;4.45;;
42000;SDS011;27689;48.390;10.856;2022-11-09T17:10:20;4.75;;;3.80;;
42000;SDS011;27689;48.390;10.856;2022-11-09T17:13:03;5.20;;;3.80;;
42000;SDS011;27689;48.390;10.856;2022-11-09T17:15:49;5.55;;;3.90;;
42000;SDS011;27689;48.390;10.856;2022-11-09T17:18:35;5.28;;;3.78;;
42000;SDS011;27689;48.390;10.856;2022-11-09T17:21:23;3.22;;;2.90;;
42000;SDS011;27689;48.390;10.856;2022-11-09T17:24:09;5.47;;;3.10;;
42000;SDS011;27689;48.390;10.856;2022-11-09T17:26:53;4.97;;;3.57;;
42000;SDS011;27689;48.390;10.856;2022-11-09T17:29:37;4.47;;;3.50;;
42000;SDS011;27689;48.390;10.856;2022-11-09T17:35:09;7.32;;;3.70;;
42000;SDS011;27689;48.390;10.856;2022-11-09T17:37:53;4.15;;;3.17;;
42000;SDS011;27689;48.390;10.856;2022-11-09T17:40:37;5.47;;;3.40;;
42000;SDS011;27689;48.390;10.856;2022-11-09T17:43:21;4.00;;;3.20;;
42000;SDS011;27689;48.390;10.856;2022-11-09T17:46:10;3.15;;;2.50;;
42000;SDS011;27689;48.390;10.856;2022-11-09T17:48:55;4.70;;;3.55;;
42000;SDS011;27689;48.390;10.856;2022-11-09T17:51:39;6.40;;;3.97;;
42000;SDS011;27689;48.390;10.856;2022-11-09T17:54:23;6.30;;;4.03;;
42000;SDS011;27689;48.390;10.856;2022-11-09T17:57:07;6.38;;;4.20;;
42000;SDS011;27689;48.390;10.856;2022-11-09T17:59:51;5.53;;;4.05;;
42000;SDS011;27689;48.390;10.856;2022-11-09T18:02:35;7.27;;;4.37;;
42000;SDS011;27689;48.390;10.856;2022-11-09T18:05:19;4.93;;;3.78;;
42000;SDS011;27689;48.390;10.856;2022-11-09T18:08:04;6.65;;;3.80;;
42000;SDS011;27689;48.390;10.856;2022-11-09T18:10:51;5.10;;;3.85;;
42000;SDS011;27689;48.390;10.856;2022-11-09T18:13:35;5.50;;;4.77;;
42000;SDS011;27689;48.390;10.856;2022-11-09T18:16:19;7.03;;;4.80;;
42000;SDS011;27689;48.390;10.856;2022-11-09T18:19:03;6.10;;;4.85;;
42000;SDS011;27689;48.390;10.856;2022-11-09T18:24:32;6.88;;;4.88;;
42000;SDS011;27689;48.390;10.856;2022-11-09T18:27:16;5.85;;;4.65;;
42000;SDS011;27689;48.390;10.856;2022-11-09T18:30:01;5.15;;;4.53;;
42000;SDS011;27689;48.390;10.856;2022-11-09T18:32:47;4.55;;;3.75;;
42000;SDS011;27689;48.390;10.856;2022-11-09T18:35:31;5.90;;;3.95;;
42000;SDS011;27689;48.390;10.856;2022-11-09T18:38:15;3.60;;;3.10;;
42000;SDS011;27689;48.390;10.856;2022-11-09T18:41:04;3.43;;;2.60;;
42000;SDS011;27689;48.390;10.856;2022-11-09T18:43:53;4.22;;;2.90;;
42000;SDS011;27689;48.390;10.856;2022-11-09T18:46:37;6.07;;;3.53;;
42000;SDS011;27689;48.390;10.856;2022-11-09T18:49:21;5.72;;;3.85;;
42000;SDS011;27689;48.390;10.856;2022-11-09T18:52:05;3.75;;;2.80;;
42000;SDS011;27689;48.390;10.856;2022-11-09T18:54:48;5.22;;;3.10;;
42000;SDS011;27689;48.390;10.856;2022-11-09T18:57:32;4.25;;;3.40;;
42000;SDS011;27689;48.390;10.856;2022-11-09T19:00:17;9.52;;;3.50;;
42000;SDS011;27689;48.390;10.856;2022-11-09T19:03:01;5.88;;;3.28;;
42000;SDS011;27689;48.390;10.856;2022-11-09T19:05:45;3.47;;;3.13;;